sensor_id;sensor_type;location;lat;lon;timestamp;temperature;humidity
2407;DHT22;37709;53.480;9.688;2024-03-08T00:00:12;-0.70;99.90
2407;DHT22;37709;53.480;9.688;2024-03-08T00:02:42;-0.80;99.90
2407;DHT22;37709;53.480;9.688;2024-03-08T00:05:10;-0.60;99.90
2407;DHT22;37709;53.480;9.688;2024-03-08T00:07:38;-0.80;99.90
2407;DHT22;37709;53.480;9.688;2024-03-08T00:10:07;-1.00;99.90
2407;DHT22;37709;53.480;9.688;2024-03-08T00:12:42;-0.90;99.90
2407;DHT22;37709;53.480;9.688;2024-03-08T00:15:11;-0.80;99.90
2407;DHT22;37709;53.480;9.688;2024-03-08T00:17:41;-1.00;99.90
2407;DHT22;37709;53.480;9.688;2024-03-08T00:20:09;-0.90;99.90
2407;DHT22;37709;53.480;9.688;2024-03-08T00:22:37;-1.00;99.90
2407;DHT22;37709;53.480;9.688;2024-03-08T00:25:07;-1.00;99.90
2407;DHT22;37709;53.480;9.688;2024-03-08T00:27:38;-1.00;99.90
2407;DHT22;37709;53.480;9.688;2024-03-08T00:30:06;-1.10;99.90
2407;DHT22;37709;53.480;9.688;2024-03-08T00:32:36;-1.10;99.90
2407;DHT22;37709;53.480;9.688;2024-03-08T00:35:04;-1.10;99.90
2407;DHT22;37709;53.480;9.688;2024-03-08T00:37:37;-1.20;99.90
2407;DHT22;37709;53.480;9.688;2024-03-08T00:40:05;-1.20;99.90
2407;DHT22;37709;53.480;9.688;2024-03-08T00:42:36;-1.30;99.90
2407;DHT22;37709;53.480;9.688;2024-03-08T00:45:05;-1.30;99.90
2407;DHT22;37709;53.480;9.688;2024-03-08T00:47:33;-1.30;99.90
2407;DHT22;37709;53.480;9.688;2024-03-08T00:50:01;-1.30;99.90
2407;DHT22;37709;53.480;9.688;2024-03-08T00:52:31;-1.30;99.90
2407;DHT22;37709;53.480;9.688;2024-03-08T00:54:59;-1.10;99.90
2407;DHT22;37709;53.480;9.688;2024-03-08T00:57:26;-1.20;99.90
2407;DHT22;37709;53.480;9.688;2024-03-08T00:59:55;-1.10;99.90
2407;DHT22;37709;53.480;9.688;2024-03-08T01:02:25;-1.30;99.90
2407;DHT22;37709;53.480;9.688;2024-03-08T01:04:52;-1.10;99.90
2407;DHT22;37709;53.480;9.688;2024-03-08T01:07:20;-1.20;99.90
2407;DHT22;37709;53.480;9.688;2024-03-08T01:09:48;-1.10;99.90
2407;DHT22;37709;53.480;9.688;2024-03-08T01:12:15;-1.30;99.90
2407;DHT22;37709;53.480;9.688;2024-03-08T01:14:43;-1.20;99.90
2407;DHT22;37709;53.480;9.688;2024-03-08T01:17:11;-1.20;99.90
2407;DHT22;37709;53.480;9.688;2024-03-08T01:19:39;-1.20;99.90
2407;DHT22;37709;53.480;9.688;2024-03-08T01:22:07;-1.30;99.90
2407;DHT22;37709;53.480;9.688;2024-03-08T01:24:35;-1.40;99.90
2407;DHT22;37709;53.480;9.688;2024-03-08T01:27:03;-1.40;99.90
2407;DHT22;37709;53.480;9.688;2024-03-08T01:29:30;-1.40;99.90
2407;DHT22;37709;53.480;9.688;2024-03-08T01:31:59;-1.30;99.90
2407;DHT22;37709;53.480;9.688;2024-03-08T01:34:29;-1.30;99.90
2407;DHT22;37709;53.480;9.688;2024-03-08T01:36:56;-1.20;99.90
2407;DHT22;37709;53.480;9.688;2024-03-08T01:39:25;-1.20;99.90
2407;DHT22;37709;53.480;9.688;2024-03-08T01:41:53;-1.40;99.90
2407;DHT22;37709;53.480;9.688;2024-03-08T01:44:21;-1.40;99.90
2407;DHT22;37709;53.480;9.688;2024-03-08T01:46:51;-1.50;99.90
2407;DHT22;37709;53.480;9.688;2024-03-08T01:49:20;-1.60;99.90
2407;DHT22;37709;53.480;9.688;2024-03-08T01:51:48;-1.60;99.90
2407;DHT22;37709;53.480;9.688;2024-03-08T01:54:17;-1.70;99.90
2407;DHT22;37709;53.480;9.688;2024-03-08T01:56:46;-1.70;99.90
2407;DHT22;37709;53.480;9.688;2024-03-08T01:59:14;-1.80;99.90
2407;DHT22;37709;53.480;9.688;2024-03-08T02:01:42;-2.00;99.90
2407;DHT22;37709;53.480;9.688;2024-03-08T02:04:10;-2.00;99.90
2407;DHT22;37709;53.480;9.688;2024-03-08T02:06:39;-2.00;99.90
2407;DHT22;37709;53.480;9.688;2024-03-08T02:09:10;-1.90;99.90
2407;DHT22;37709;53.480;9.688;2024-03-08T02:11:37;-1.90;99.90
2407;DHT22;37709;53.480;9.688;2024-03-08T02:14:07;-2.00;99.90
2407;DHT22;37709;53.480;9.688;2024-03-08T02:16:34;-2.00;99.90
2407;DHT22;37709;53.480;9.688;2024-03-08T02:19:01;-2.10;99.90
2407;DHT22;37709;53.480;9.688;2024-03-08T02:21:29;-2.10;99.90
2407;DHT22;37709;53.480;9.688;2024-03-08T02:23:58;-2.10;99.90
2407;DHT22;37709;53.480;9.688;2024-03-08T02:26:27;-2.10;99.90
2407;DHT22;37709;53.480;9.688;2024-03-08T02:28:54;-2.10;99.90
2407;DHT22;37709;53.480;9.688;2024-03-08T02:31:21;-2.10;99.90
2407;DHT22;37709;53.480;9.688;2024-03-08T02:33:49;-2.20;99.90
2407;DHT22;37709;53.480;9.688;2024-03-08T02:36:17;-2.30;99.90
2407;DHT22;37709;53.480;9.688;2024-03-08T02:38:44;-2.40;99.90
2407;DHT22;37709;53.480;9.688;2024-03-08T02:41:12;-1.90;99.90
2407;DHT22;37709;53.480;9.688;2024-03-08T02:43:39;-1.90;99.90
2407;DHT22;37709;53.480;9.688;2024-03-08T02:46:07;-2.00;99.90
2407;DHT22;37709;53.480;9.688;2024-03-08T02:48:34;-2.20;99.90
2407;DHT22;37709;53.480;9.688;2024-03-08T02:51:02;-2.30;99.90
2407;DHT22;37709;53.480;9.688;2024-03-08T02:53:31;-2.30;99.90
2407;DHT22;37709;53.480;9.688;2024-03-08T02:55:58;-2.30;99.90
2407;DHT22;37709;53.480;9.688;2024-03-08T02:58:26;-2.20;99.90
2407;DHT22;37709;53.480;9.688;2024-03-08T03:00:54;-2.40;99.90
2407;DHT22;37709;53.480;9.688;2024-03-08T03:03:24;-2.40;99.90
2407;DHT22;37709;53.480;9.688;2024-03-08T03:05:52;-2.60;99.90
2407;DHT22;37709;53.480;9.688;2024-03-08T03:08:22;-2.70;99.90
2407;DHT22;37709;53.480;9.688;2024-03-08T03:10:51;-2.70;99.90
2407;DHT22;37709;53.480;9.688;2024-03-08T03:13:18;-2.70;99.90
2407;DHT22;37709;53.480;9.688;2024-03-08T03:15:47;-2.70;99.90
2407;DHT22;37709;53.480;9.688;2024-03-08T03:18:14;-2.80;99.90
2407;DHT22;37709;53.480;9.688;2024-03-08T03:20:42;-2.90;99.90
2407;DHT22;37709;53.480;9.688;2024-03-08T03:23:11;-2.90;99.90
2407;DHT22;37709;53.480;9.688;2024-03-08T03:25:43;-3.00;99.90
2407;DHT22;37709;53.480;9.688;2024-03-08T03:28:13;-2.90;99.90
2407;DHT22;37709;53.480;9.688;2024-03-08T03:30:46;-2.70;99.90
2407;DHT22;37709;53.480;9.688;2024-03-08T03:33:14;-2.80;99.90
2407;DHT22;37709;53.480;9.688;2024-03-08T03:35:43;-2.80;99.90
2407;DHT22;37709;53.480;9.688;2024-03-08T03:38:11;-2.80;99.90
2407;DHT22;37709;53.480;9.688;2024-03-08T03:40:41;-2.90;99.90
2407;DHT22;37709;53.480;9.688;2024-03-08T03:43:08;-2.90;99.90
2407;DHT22;37709;53.480;9.688;2024-03-08T03:45:38;-3.00;99.90
2407;DHT22;37709;53.480;9.688;2024-03-08T03:48:07;-3.00;99.90
2407;DHT22;37709;53.480;9.688;2024-03-08T03:50:38;-3.00;99.90
2407;DHT22;37709;53.480;9.688;2024-03-08T03:53:06;-3.00;99.90
2407;DHT22;37709;53.480;9.688;2024-03-08T03:55:38;-3.00;99.90
2407;DHT22;37709;53.480;9.688;2024-03-08T03:58:08;-2.90;99.90
2407;DHT22;37709;53.480;9.688;2024-03-08T04:00:37;-2.80;99.90
2407;DHT22;37709;53.480;9.688;2024-03-08T04:03:05;-2.80;99.90
2407;DHT22;37709;53.480;9.688;2024-03-08T04:05:33;-2.80;99.90
2407;DHT22;37709;53.480;9.688;2024-03-08T04:08:00;-2.70;99.90
2407;DHT22;37709;53.480;9.688;2024-03-08T04:10:30;-2.60;99.90
2407;DHT22;37709;53.480;9.688;2024-03-08T04:12:57;-2.60;99.90
2407;DHT22;37709;53.480;9.688;2024-03-08T04:15:24;-2.70;99.90
2407;DHT22;37709;53.480;9.688;2024-03-08T04:17:52;-2.80;99.90
2407;DHT22;37709;53.480;9.688;2024-03-08T04:20:20;-2.80;99.90
2407;DHT22;37709;53.480;9.688;2024-03-08T04:22:48;-2.80;99.90
2407;DHT22;37709;53.480;9.688;2024-03-08T04:25:16;-2.80;99.90
2407;DHT22;37709;53.480;9.688;2024-03-08T04:27:44;-2.80;99.90
2407;DHT22;37709;53.480;9.688;2024-03-08T04:30:12;-2.70;99.90
2407;DHT22;37709;53.480;9.688;2024-03-08T04:32:41;-2.70;99.90
2407;DHT22;37709;53.480;9.688;2024-03-08T04:35:11;-2.60;99.90
2407;DHT22;37709;53.480;9.688;2024-03-08T04:37:40;-2.50;99.90
2407;DHT22;37709;53.480;9.688;2024-03-08T04:40:07;-2.50;99.90
2407;DHT22;37709;53.480;9.688;2024-03-08T04:42:36;-2.40;99.90
2407;DHT22;37709;53.480;9.688;2024-03-08T04:45:04;-2.50;99.90
2407;DHT22;37709;53.480;9.688;2024-03-08T04:47:32;-2.50;99.90
2407;DHT22;37709;53.480;9.688;2024-03-08T04:50:00;-2.60;99.90
2407;DHT22;37709;53.480;9.688;2024-03-08T04:52:27;-2.50;99.90
2407;DHT22;37709;53.480;9.688;2024-03-08T04:54:55;-2.40;99.90
2407;DHT22;37709;53.480;9.688;2024-03-08T04:57:23;-2.40;99.90
2407;DHT22;37709;53.480;9.688;2024-03-08T04:59:53;-2.50;99.90
2407;DHT22;37709;53.480;9.688;2024-03-08T05:02:21;-2.50;99.90
2407;DHT22;37709;53.480;9.688;2024-03-08T05:04:49;-2.60;99.90
2407;DHT22;37709;53.480;9.688;2024-03-08T05:07:17;-2.30;99.90
2407;DHT22;37709;53.480;9.688;2024-03-08T05:09:44;-2.50;99.90
2407;DHT22;37709;53.480;9.688;2024-03-08T05:12:19;-2.40;99.90
2407;DHT22;37709;53.480;9.688;2024-03-08T05:14:46;-2.30;99.90
2407;DHT22;37709;53.480;9.688;2024-03-08T05:17:17;-2.30;99.90
2407;DHT22;37709;53.480;9.688;2024-03-08T05:19:46;-2.50;99.90
2407;DHT22;37709;53.480;9.688;2024-03-08T05:22:13;-2.40;99.90
2407;DHT22;37709;53.480;9.688;2024-03-08T05:24:41;-2.50;99.90
2407;DHT22;37709;53.480;9.688;2024-03-08T05:27:09;-2.60;99.90
2407;DHT22;37709;53.480;9.688;2024-03-08T05:29:37;-2.60;99.90
2407;DHT22;37709;53.480;9.688;2024-03-08T05:32:05;-2.60;99.90
2407;DHT22;37709;53.480;9.688;2024-03-08T05:34:32;-2.80;99.90
2407;DHT22;37709;53.480;9.688;2024-03-08T05:36:59;-2.80;99.90
2407;DHT22;37709;53.480;9.688;2024-03-08T05:39:27;-2.80;99.90
2407;DHT22;37709;53.480;9.688;2024-03-08T05:41:55;-2.80;99.90
2407;DHT22;37709;53.480;9.688;2024-03-08T05:44:28;-2.80;99.90
2407;DHT22;37709;53.480;9.688;2024-03-08T05:46:57;-2.90;99.90
2407;DHT22;37709;53.480;9.688;2024-03-08T05:49:24;-2.70;99.90
2407;DHT22;37709;53.480;9.688;2024-03-08T05:51:53;-2.90;99.90
2407;DHT22;37709;53.480;9.688;2024-03-08T05:54:22;-2.80;99.90
2407;DHT22;37709;53.480;9.688;2024-03-08T05:56:52;-2.80;99.90
2407;DHT22;37709;53.480;9.688;2024-03-08T05:59:21;-2.70;99.90
2407;DHT22;37709;53.480;9.688;2024-03-08T06:01:50;-2.70;99.90
2407;DHT22;37709;53.480;9.688;2024-03-08T06:04:18;-2.60;99.90
2407;DHT22;37709;53.480;9.688;2024-03-08T06:06:47;-2.50;99.90
2407;DHT22;37709;53.480;9.688;2024-03-08T06:09:18;-2.60;99.90
2407;DHT22;37709;53.480;9.688;2024-03-08T06:11:52;-2.60;99.90
2407;DHT22;37709;53.480;9.688;2024-03-08T06:14:21;-2.60;99.90
2407;DHT22;37709;53.480;9.688;2024-03-08T06:16:51;-2.50;99.90
2407;DHT22;37709;53.480;9.688;2024-03-08T06:19:18;-2.40;99.90
2407;DHT22;37709;53.480;9.688;2024-03-08T06:21:46;-2.40;99.90
2407;DHT22;37709;53.480;9.688;2024-03-08T06:24:16;-2.30;99.90
2407;DHT22;37709;53.480;9.688;2024-03-08T06:26:44;-2.30;99.90
2407;DHT22;37709;53.480;9.688;2024-03-08T06:29:11;-2.20;99.90
2407;DHT22;37709;53.480;9.688;2024-03-08T06:31:40;-2.20;99.90
2407;DHT22;37709;53.480;9.688;2024-03-08T06:34:08;-2.10;99.90
2407;DHT22;37709;53.480;9.688;2024-03-08T06:36:36;-2.10;99.90
2407;DHT22;37709;53.480;9.688;2024-03-08T06:39:05;-2.00;99.90
2407;DHT22;37709;53.480;9.688;2024-03-08T06:41:38;-1.90;99.90
2407;DHT22;37709;53.480;9.688;2024-03-08T06:44:31;-1.80;99.90
2407;DHT22;37709;53.480;9.688;2024-03-08T06:46:58;-1.70;99.90
2407;DHT22;37709;53.480;9.688;2024-03-08T06:49:27;-1.60;99.90
2407;DHT22;37709;53.480;9.688;2024-03-08T06:51:54;-1.60;99.90
2407;DHT22;37709;53.480;9.688;2024-03-08T06:54:22;-1.50;99.90
2407;DHT22;37709;53.480;9.688;2024-03-08T06:56:49;-0.80;99.90
2407;DHT22;37709;53.480;9.688;2024-03-08T06:59:16;0.60;99.90
2407;DHT22;37709;53.480;9.688;2024-03-08T07:01:45;1.50;99.90
2407;DHT22;37709;53.480;9.688;2024-03-08T07:04:13;2.40;99.90
2407;DHT22;37709;53.480;9.688;2024-03-08T07:06:41;3.00;99.90
2407;DHT22;37709;53.480;9.688;2024-03-08T07:09:09;3.60;99.90
2407;DHT22;37709;53.480;9.688;2024-03-08T07:11:36;4.10;99.90
2407;DHT22;37709;53.480;9.688;2024-03-08T07:14:09;4.60;99.90
2407;DHT22;37709;53.480;9.688;2024-03-08T07:16:37;5.00;99.90
2407;DHT22;37709;53.480;9.688;2024-03-08T07:19:07;5.40;99.90
2407;DHT22;37709;53.480;9.688;2024-03-08T07:21:35;5.80;99.90
2407;DHT22;37709;53.480;9.688;2024-03-08T07:24:05;6.30;99.90
2407;DHT22;37709;53.480;9.688;2024-03-08T07:26:44;6.60;99.90
2407;DHT22;37709;53.480;9.688;2024-03-08T07:29:17;7.00;99.90
2407;DHT22;37709;53.480;9.688;2024-03-08T07:31:44;7.50;99.90
2407;DHT22;37709;53.480;9.688;2024-03-08T07:34:23;7.50;99.90
2407;DHT22;37709;53.480;9.688;2024-03-08T07:36:50;8.10;99.90
2407;DHT22;37709;53.480;9.688;2024-03-08T07:39:19;8.10;99.90
2407;DHT22;37709;53.480;9.688;2024-03-08T07:41:46;8.50;99.90
2407;DHT22;37709;53.480;9.688;2024-03-08T07:44:16;8.80;99.90
2407;DHT22;37709;53.480;9.688;2024-03-08T07:46:43;9.30;99.90
2407;DHT22;37709;53.480;9.688;2024-03-08T07:49:11;9.40;99.90
2407;DHT22;37709;53.480;9.688;2024-03-08T07:51:39;9.50;99.90
2407;DHT22;37709;53.480;9.688;2024-03-08T07:54:07;9.80;99.90
2407;DHT22;37709;53.480;9.688;2024-03-08T07:56:36;10.20;99.90
2407;DHT22;37709;53.480;9.688;2024-03-08T07:59:05;10.70;99.90
2407;DHT22;37709;53.480;9.688;2024-03-08T08:01:32;11.50;99.90
2407;DHT22;37709;53.480;9.688;2024-03-08T08:04:01;11.70;99.90
2407;DHT22;37709;53.480;9.688;2024-03-08T08:06:29;11.70;99.90
2407;DHT22;37709;53.480;9.688;2024-03-08T08:09:00;12.20;99.90
2407;DHT22;37709;53.480;9.688;2024-03-08T08:11:28;12.60;99.90
2407;DHT22;37709;53.480;9.688;2024-03-08T08:13:56;12.00;99.90
2407;DHT22;37709;53.480;9.688;2024-03-08T08:16:23;12.00;99.90
2407;DHT22;37709;53.480;9.688;2024-03-08T08:18:53;12.20;99.90
2407;DHT22;37709;53.480;9.688;2024-03-08T08:21:23;11.50;99.90
2407;DHT22;37709;53.480;9.688;2024-03-08T08:23:52;12.70;99.90
2407;DHT22;37709;53.480;9.688;2024-03-08T14:46:27;14.00;99.90
2407;DHT22;37709;53.480;9.688;2024-03-08T14:48:56;16.10;66.50
2407;DHT22;37709;53.480;9.688;2024-03-08T14:51:25;16.10;67.90
2407;DHT22;37709;53.480;9.688;2024-03-08T14:53:56;16.30;67.00
2407;DHT22;37709;53.480;9.688;2024-03-08T14:56:28;16.00;68.00
2407;DHT22;37709;53.480;9.688;2024-03-08T14:58:57;15.20;67.50
2407;DHT22;37709;53.480;9.688;2024-03-08T15:01:27;15.20;69.60
2407;DHT22;37709;53.480;9.688;2024-03-08T15:03:57;15.00;67.90
2407;DHT22;37709;53.480;9.688;2024-03-08T15:06:30;14.40;68.30
2407;DHT22;37709;53.480;9.688;2024-03-08T15:09:00;13.60;70.60
2407;DHT22;37709;53.480;9.688;2024-03-08T15:11:29;13.70;72.10
2407;DHT22;37709;53.480;9.688;2024-03-08T15:13:57;13.50;72.00
2407;DHT22;37709;53.480;9.688;2024-03-08T15:16:25;13.00;74.50
2407;DHT22;37709;53.480;9.688;2024-03-08T15:18:53;12.90;74.00
2407;DHT22;37709;53.480;9.688;2024-03-08T15:21:24;12.90;74.10
2407;DHT22;37709;53.480;9.688;2024-03-08T15:23:53;12.60;75.60
2407;DHT22;37709;53.480;9.688;2024-03-08T15:26:21;12.10;76.50
2407;DHT22;37709;53.480;9.688;2024-03-08T15:28:50;11.90;77.60
2407;DHT22;37709;53.480;9.688;2024-03-08T15:31:20;11.90;78.50
2407;DHT22;37709;53.480;9.688;2024-03-08T15:33:48;12.00;79.60
2407;DHT22;37709;53.480;9.688;2024-03-08T15:36:22;11.80;80.70
2407;DHT22;37709;53.480;9.688;2024-03-08T15:38:51;12.00;81.80
2407;DHT22;37709;53.480;9.688;2024-03-08T15:41:19;11.60;80.90
2407;DHT22;37709;53.480;9.688;2024-03-08T15:43:49;11.40;81.50
2407;DHT22;37709;53.480;9.688;2024-03-08T15:46:18;11.40;82.50
2407;DHT22;37709;53.480;9.688;2024-03-08T15:48:55;11.40;82.70
2407;DHT22;37709;53.480;9.688;2024-03-08T15:51:24;11.30;84.40
2407;DHT22;37709;53.480;9.688;2024-03-08T15:53:53;11.10;86.60
2407;DHT22;37709;53.480;9.688;2024-03-08T15:56:25;10.80;88.20
2407;DHT22;37709;53.480;9.688;2024-03-08T15:58:55;10.70;90.50
2407;DHT22;37709;53.480;9.688;2024-03-08T16:01:23;10.60;90.60
2407;DHT22;37709;53.480;9.688;2024-03-08T16:03:54;10.50;91.20
2407;DHT22;37709;53.480;9.688;2024-03-08T16:06:21;10.30;91.80
2407;DHT22;37709;53.480;9.688;2024-03-08T16:08:51;10.10;92.10
2407;DHT22;37709;53.480;9.688;2024-03-08T16:11:21;9.90;93.30
2407;DHT22;37709;53.480;9.688;2024-03-08T16:13:50;9.60;94.10
2407;DHT22;37709;53.480;9.688;2024-03-08T16:16:18;9.30;95.30
2407;DHT22;37709;53.480;9.688;2024-03-08T16:18:47;9.10;96.40
2407;DHT22;37709;53.480;9.688;2024-03-08T16:21:15;8.90;97.60
2407;DHT22;37709;53.480;9.688;2024-03-08T16:23:43;8.70;98.50
2407;DHT22;37709;53.480;9.688;2024-03-08T16:26:11;8.50;99.50
2407;DHT22;37709;53.480;9.688;2024-03-08T16:28:38;8.30;99.90
2407;DHT22;37709;53.480;9.688;2024-03-08T16:31:07;8.30;99.90
2407;DHT22;37709;53.480;9.688;2024-03-08T16:33:35;8.30;99.90
2407;DHT22;37709;53.480;9.688;2024-03-08T16:36:03;8.20;99.90
2407;DHT22;37709;53.480;9.688;2024-03-08T16:38:30;8.10;99.90
2407;DHT22;37709;53.480;9.688;2024-03-08T16:41:02;7.90;99.90
2407;DHT22;37709;53.480;9.688;2024-03-08T16:43:31;7.80;99.90
2407;DHT22;37709;53.480;9.688;2024-03-08T16:46:01;7.70;99.90
2407;DHT22;37709;53.480;9.688;2024-03-08T16:48:31;7.40;99.90
2407;DHT22;37709;53.480;9.688;2024-03-08T16:50:59;7.20;99.90
2407;DHT22;37709;53.480;9.688;2024-03-08T16:53:27;7.20;99.90
2407;DHT22;37709;53.480;9.688;2024-03-08T16:55:55;7.10;99.90
2407;DHT22;37709;53.480;9.688;2024-03-08T16:58:50;7.00;99.90
2407;DHT22;37709;53.480;9.688;2024-03-08T17:01:20;6.90;99.90
2407;DHT22;37709;53.480;9.688;2024-03-08T17:03:49;6.70;99.90
2407;DHT22;37709;53.480;9.688;2024-03-08T17:06:28;6.60;99.90
2407;DHT22;37709;53.480;9.688;2024-03-08T17:08:56;6.50;99.90
2407;DHT22;37709;53.480;9.688;2024-03-08T17:11:23;6.40;99.90
2407;DHT22;37709;53.480;9.688;2024-03-08T17:13:51;6.30;99.90
2407;DHT22;37709;53.480;9.688;2024-03-08T17:16:20;6.20;99.90
2407;DHT22;37709;53.480;9.688;2024-03-08T17:19:17;6.00;99.90
2407;DHT22;37709;53.480;9.688;2024-03-08T17:21:45;6.00;99.90
2407;DHT22;37709;53.480;9.688;2024-03-08T17:24:13;6.10;99.90
2407;DHT22;37709;53.480;9.688;2024-03-08T17:26:44;6.10;99.90
2407;DHT22;37709;53.480;9.688;2024-03-08T17:29:11;5.90;99.90
2407;DHT22;37709;53.480;9.688;2024-03-08T17:31:42;5.60;99.90
2407;DHT22;37709;53.480;9.688;2024-03-08T17:34:12;5.60;99.90
2407;DHT22;37709;53.480;9.688;2024-03-08T17:36:45;5.70;99.90
2407;DHT22;37709;53.480;9.688;2024-03-08T17:39:13;5.60;99.90
2407;DHT22;37709;53.480;9.688;2024-03-08T17:41:47;5.40;99.90
2407;DHT22;37709;53.480;9.688;2024-03-08T17:44:16;5.30;99.90
2407;DHT22;37709;53.480;9.688;2024-03-08T17:46:44;5.40;99.90
2407;DHT22;37709;53.480;9.688;2024-03-08T17:49:13;5.20;99.90
2407;DHT22;37709;53.480;9.688;2024-03-08T17:51:41;5.20;99.90
2407;DHT22;37709;53.480;9.688;2024-03-08T17:54:09;5.20;99.90
2407;DHT22;37709;53.480;9.688;2024-03-08T17:56:41;5.20;99.90
2407;DHT22;37709;53.480;9.688;2024-03-08T17:59:09;5.10;99.90
2407;DHT22;37709;53.480;9.688;2024-03-08T18:01:39;4.90;99.90
2407;DHT22;37709;53.480;9.688;2024-03-08T18:04:07;4.70;99.90
2407;DHT22;37709;53.480;9.688;2024-03-08T18:06:35;4.70;99.90
2407;DHT22;37709;53.480;9.688;2024-03-08T18:09:04;4.70;99.90
2407;DHT22;37709;53.480;9.688;2024-03-08T18:11:39;4.70;99.90
2407;DHT22;37709;53.480;9.688;2024-03-08T18:14:06;4.70;99.90
2407;DHT22;37709;53.480;9.688;2024-03-08T18:16:40;4.40;99.90
2407;DHT22;37709;53.480;9.688;2024-03-08T18:19:09;4.40;99.90
2407;DHT22;37709;53.480;9.688;2024-03-08T18:21:37;4.40;99.90
2407;DHT22;37709;53.480;9.688;2024-03-08T18:24:05;4.40;99.90
2407;DHT22;37709;53.480;9.688;2024-03-08T18:26:33;4.30;99.90
2407;DHT22;37709;53.480;9.688;2024-03-08T18:29:03;4.10;99.90
2407;DHT22;37709;53.480;9.688;2024-03-08T18:31:32;4.00;99.90
2407;DHT22;37709;53.480;9.688;2024-03-08T18:34:02;3.90;99.90
2407;DHT22;37709;53.480;9.688;2024-03-08T18:36:33;3.70;99.90
2407;DHT22;37709;53.480;9.688;2024-03-08T18:39:02;3.70;99.90
2407;DHT22;37709;53.480;9.688;2024-03-08T18:41:31;3.50;99.90
2407;DHT22;37709;53.480;9.688;2024-03-08T18:44:04;3.50;99.90
2407;DHT22;37709;53.480;9.688;2024-03-08T18:46:32;3.60;99.90
2407;DHT22;37709;53.480;9.688;2024-03-08T18:49:00;3.50;99.90
2407;DHT22;37709;53.480;9.688;2024-03-08T18:51:28;3.60;99.90
2407;DHT22;37709;53.480;9.688;2024-03-08T18:53:57;3.60;99.90
2407;DHT22;37709;53.480;9.688;2024-03-08T18:56:24;3.40;99.90
2407;DHT22;37709;53.480;9.688;2024-03-08T18:58:51;3.30;99.90
2407;DHT22;37709;53.480;9.688;2024-03-08T19:01:19;3.20;99.90
2407;DHT22;37709;53.480;9.688;2024-03-08T19:03:52;3.20;99.90
2407;DHT22;37709;53.480;9.688;2024-03-08T19:06:22;3.30;99.90
2407;DHT22;37709;53.480;9.688;2024-03-08T19:08:54;3.10;99.90
2407;DHT22;37709;53.480;9.688;2024-03-08T19:11:22;3.10;99.90
2407;DHT22;37709;53.480;9.688;2024-03-08T19:13:50;3.10;99.90
2407;DHT22;37709;53.480;9.688;2024-03-08T19:16:18;3.00;99.90
2407;DHT22;37709;53.480;9.688;2024-03-08T19:18:46;2.90;99.90
2407;DHT22;37709;53.480;9.688;2024-03-08T19:21:14;2.90;99.90
2407;DHT22;37709;53.480;9.688;2024-03-08T19:23:41;2.80;99.90
2407;DHT22;37709;53.480;9.688;2024-03-08T19:26:11;2.80;99.90
2407;DHT22;37709;53.480;9.688;2024-03-08T19:28:39;2.80;99.90
2407;DHT22;37709;53.480;9.688;2024-03-08T19:31:07;2.80;99.90
2407;DHT22;37709;53.480;9.688;2024-03-08T19:33:34;2.80;99.90
2407;DHT22;37709;53.480;9.688;2024-03-08T19:36:03;2.60;99.90
2407;DHT22;37709;53.480;9.688;2024-03-08T19:38:31;2.60;99.90
2407;DHT22;37709;53.480;9.688;2024-03-08T19:41:00;2.50;99.90
2407;DHT22;37709;53.480;9.688;2024-03-08T19:43:28;2.70;99.90
2407;DHT22;37709;53.480;9.688;2024-03-08T19:45:57;2.60;99.90
2407;DHT22;37709;53.480;9.688;2024-03-08T19:48:25;2.50;99.90
2407;DHT22;37709;53.480;9.688;2024-03-08T19:50:54;2.60;99.90
2407;DHT22;37709;53.480;9.688;2024-03-08T19:53:23;2.40;99.90
2407;DHT22;37709;53.480;9.688;2024-03-08T19:55:50;2.50;99.90
2407;DHT22;37709;53.480;9.688;2024-03-08T19:58:21;2.50;99.90
2407;DHT22;37709;53.480;9.688;2024-03-08T20:00:49;2.50;99.90
2407;DHT22;37709;53.480;9.688;2024-03-08T20:03:18;2.50;99.90
2407;DHT22;37709;53.480;9.688;2024-03-08T20:05:52;2.50;99.90
2407;DHT22;37709;53.480;9.688;2024-03-08T20:08:24;2.50;99.90
2407;DHT22;37709;53.480;9.688;2024-03-08T20:10:58;2.60;99.90
2407;DHT22;37709;53.480;9.688;2024-03-08T20:13:32;2.50;99.90
2407;DHT22;37709;53.480;9.688;2024-03-08T20:16:03;2.50;99.90
2407;DHT22;37709;53.480;9.688;2024-03-08T20:18:31;2.50;99.90
2407;DHT22;37709;53.480;9.688;2024-03-08T20:20:59;2.70;99.90
2407;DHT22;37709;53.480;9.688;2024-03-08T20:23:27;2.50;99.90
2407;DHT22;37709;53.480;9.688;2024-03-08T20:25:56;2.40;99.90
2407;DHT22;37709;53.480;9.688;2024-03-08T20:28:24;2.30;99.90
2407;DHT22;37709;53.480;9.688;2024-03-08T20:30:54;2.20;99.90
2407;DHT22;37709;53.480;9.688;2024-03-08T20:33:22;2.30;99.90
2407;DHT22;37709;53.480;9.688;2024-03-08T20:35:50;2.50;99.90
2407;DHT22;37709;53.480;9.688;2024-03-08T20:38:18;2.40;99.90
2407;DHT22;37709;53.480;9.688;2024-03-08T20:40:49;2.30;99.90
2407;DHT22;37709;53.480;9.688;2024-03-08T20:43:17;2.20;99.90
2407;DHT22;37709;53.480;9.688;2024-03-08T20:45:45;2.30;99.90
2407;DHT22;37709;53.480;9.688;2024-03-08T20:48:14;2.10;99.90
2407;DHT22;37709;53.480;9.688;2024-03-08T20:50:42;1.80;99.90
2407;DHT22;37709;53.480;9.688;2024-03-08T20:53:11;2.20;99.90
2407;DHT22;37709;53.480;9.688;2024-03-08T20:55:40;2.10;99.90
2407;DHT22;37709;53.480;9.688;2024-03-08T20:58:11;2.20;99.90
2407;DHT22;37709;53.480;9.688;2024-03-08T21:00:39;2.10;99.90
2407;DHT22;37709;53.480;9.688;2024-03-08T21:03:12;2.10;99.90
2407;DHT22;37709;53.480;9.688;2024-03-08T21:05:46;2.20;99.90
2407;DHT22;37709;53.480;9.688;2024-03-08T21:08:22;2.10;99.90
2407;DHT22;37709;53.480;9.688;2024-03-08T21:10:55;2.30;99.90
2407;DHT22;37709;53.480;9.688;2024-03-08T21:13:23;2.10;99.90
2407;DHT22;37709;53.480;9.688;2024-03-08T21:15:55;1.90;99.90
2407;DHT22;37709;53.480;9.688;2024-03-08T21:18:23;2.00;99.90
2407;DHT22;37709;53.480;9.688;2024-03-08T21:20:54;1.90;99.90
2407;DHT22;37709;53.480;9.688;2024-03-08T21:23:23;1.90;99.90
2407;DHT22;37709;53.480;9.688;2024-03-08T21:25:52;2.10;99.90
2407;DHT22;37709;53.480;9.688;2024-03-08T21:28:20;2.00;99.90
2407;DHT22;37709;53.480;9.688;2024-03-08T21:30:56;2.20;99.90
2407;DHT22;37709;53.480;9.688;2024-03-08T21:33:23;2.20;99.90
2407;DHT22;37709;53.480;9.688;2024-03-08T21:35:51;2.10;99.90
2407;DHT22;37709;53.480;9.688;2024-03-08T21:38:18;2.10;99.90
2407;DHT22;37709;53.480;9.688;2024-03-08T21:40:46;2.10;99.90
2407;DHT22;37709;53.480;9.688;2024-03-08T21:43:29;2.20;99.90
2407;DHT22;37709;53.480;9.688;2024-03-08T21:45:57;2.20;99.90
2407;DHT22;37709;53.480;9.688;2024-03-08T21:48:24;2.30;99.90
2407;DHT22;37709;53.480;9.688;2024-03-08T21:50:52;2.30;99.90
2407;DHT22;37709;53.480;9.688;2024-03-08T21:53:23;2.30;99.90
2407;DHT22;37709;53.480;9.688;2024-03-08T21:56:01;2.20;99.90
2407;DHT22;37709;53.480;9.688;2024-03-08T21:58:29;2.30;99.90
2407;DHT22;37709;53.480;9.688;2024-03-08T22:00:57;2.40;99.90
2407;DHT22;37709;53.480;9.688;2024-03-08T22:03:24;2.50;99.90
2407;DHT22;37709;53.480;9.688;2024-03-08T22:05:57;2.40;99.90
2407;DHT22;37709;53.480;9.688;2024-03-08T22:08:24;2.30;99.90
2407;DHT22;37709;53.480;9.688;2024-03-08T22:10:52;2.30;99.90
2407;DHT22;37709;53.480;9.688;2024-03-08T22:13:20;2.20;99.90
2407;DHT22;37709;53.480;9.688;2024-03-08T22:15:50;2.10;99.90
2407;DHT22;37709;53.480;9.688;2024-03-08T22:18:20;2.00;99.90
2407;DHT22;37709;53.480;9.688;2024-03-08T22:20:49;2.10;99.90
2407;DHT22;37709;53.480;9.688;2024-03-08T22:23:18;2.00;99.90